Franklin Furnace, Ohio
Current Conditions -  °F | °C
As of 5:35 AM on Thursday 27 Nov 2014 (Local Time) from KDWU Reporting Station
Overcast Overcast  
Wind Chill: 28°   Ceiling: 7500
Heat Index: 34°   Visibility: 10mi
Dew Point: 23°   Wind: 7mph
Humidity: 65%   Direction: 360°N
Pressure: 30.07"   Gusts: NA
Location:  38.65°N, 82.85°W
Report Text: KDWU 271035Z AUTO 36006KT 10SM BKN075 OVC090 01/M05 A3007 RMK AO1
Loading
Personal Weather Stations






























Interactive Weather Map New forecast layout! Learn more

10-Day Weather Forecast

Advertisements
Track Severe Weather on mobile